Time;durP1;ratioP1;P1;durP2;ratioP2;P2;SDS_P1;SDS_P2;PMS_P1;PMS_P2;Temp;Humidity;BMP_temperature;BMP_pressure;BME280_temperature;BME280_humidity;BME280_pressure;Samples;Min_cycle;Max_cycle;Signal;HPM_P1;HPM_P2
2024/01/27 00:01:45;;;;;;;28.63;9.15;;;;;;;;;;5012168;28;20492;-80
2024/01/27 00:04:11;;;;;;;19.13;4.85;;;;;;;;;;4994777;28;20095;-81
2024/01/27 00:06:37;;;;;;;18.67;4.55;;;;;;;;;;5029442;28;20428;-81
2024/01/27 00:09:05;;;;;;;26.25;4.50;;;;;;;;;;5011794;28;20530;-81
2024/01/27 00:11:31;;;;;;;18.20;4.22;;;;;;;;;;5010550;28;20056;-80
2024/01/27 00:13:59;;;;;;;18.33;3.95;;;;;;;;;;5029309;28;20056;-81
2024/01/27 00:16:25;;;;;;;19.75;4.38;;;;;;;;;;5029548;28;20053;-81
2024/01/27 00:18:51;;;;;;;15.57;3.67;;;;;;;;;;5029201;28;20045;-81
2024/01/27 00:21:17;;;;;;;17.02;3.95;;;;;;;;;;5028549;28;20415;-80
2024/01/27 00:23:43;;;;;;;18.38;4.38;;;;;;;;;;5029191;28;20128;-81
2024/01/27 00:26:09;;;;;;;16.90;3.92;;;;;;;;;;5027580;28;20072;-81
2024/01/27 00:28:36;;;;;;;15.88;4.50;;;;;;;;;;5003875;28;20600;-81
2024/01/27 00:31:02;;;;;;;22.00;4.32;;;;;;;;;;5048615;28;20552;-81
2024/01/27 00:33:28;;;;;;;17.45;3.40;;;;;;;;;;5022997;28;20865;-81
2024/01/27 00:35:54;;;;;;;22.70;4.40;;;;;;;;;;5011490;28;20498;-81
2024/01/27 00:38:20;;;;;;;20.02;3.78;;;;;;;;;;5011833;28;20510;-81
2024/01/27 00:40:46;;;;;;;17.52;4.18;;;;;;;;;;5027857;28;20152;-81
2024/01/27 00:43:12;;;;;;;20.67;3.20;;;;;;;;;;5029098;28;20414;-81
2024/01/27 00:45:38;;;;;;;17.63;4.22;;;;;;;;;;5028174;28;20132;-81
2024/01/27 00:48:05;;;;;;;19.85;3.72;;;;;;;;;;5035059;28;20073;-81
2024/01/27 00:50:31;;;;;;;15.95;4.55;;;;;;;;;;5048343;28;20462;-81
2024/01/27 00:52:57;;;;;;;14.30;3.50;;;;;;;;;;5015179;28;20046;-81
2024/01/27 00:55:23;;;;;;;16.40;3.45;;;;;;;;;;4993289;28;20061;-81
2024/01/27 00:57:49;;;;;;;15.10;3.83;;;;;;;;;;5028572;28;20458;-81
2024/01/27 01:00:15;;;;;;;18.42;3.95;;;;;;;;;;5010915;28;20057;-81
2024/01/27 01:02:41;;;;;;;17.90;4.20;;;;;;;;;;5033205;28;20809;-81
2024/01/27 01:05:07;;;;;;;15.40;4.22;;;;;;;;;;5048227;28;20065;-81
2024/01/27 01:07:33;;;;;;;20.58;4.47;;;;;;;;;;5048506;28;20783;-81
2024/01/27 01:09:59;;;;;;;20.67;4.63;;;;;;;;;;5039977;28;20103;-80
2024/01/27 01:12:26;;;;;;;21.17;4.13;;;;;;;;;;5028111;28;20152;-81
2024/01/27 01:14:52;;;;;;;17.30;3.70;;;;;;;;;;5027990;28;20542;-81
2024/01/27 01:17:18;;;;;;;19.25;3.85;;;;;;;;;;5027885;28;20046;-81
2024/01/27 01:19:44;;;;;;;15.43;3.60;;;;;;;;;;5025979;28;20037;-81
2024/01/27 01:22:10;;;;;;;16.67;3.80;;;;;;;;;;5010927;28;20121;-81
2024/01/27 01:24:36;;;;;;;20.30;4.38;;;;;;;;;;5027930;28;20049;-81
2024/01/27 01:27:03;;;;;;;18.83;3.90;;;;;;;;;;5027132;28;20502;-81
2024/01/27 01:29:31;;;;;;;23.85;4.50;;;;;;;;;;5028045;28;20049;-81
2024/01/27 01:31:57;;;;;;;18.83;3.80;;;;;;;;;;4993589;28;20049;-81
2024/01/27 01:34:23;;;;;;;14.55;3.72;;;;;;;;;;5027800;28;20124;-81
2024/01/27 01:36:49;;;;;;;14.23;3.88;;;;;;;;;;5027883;28;20475;-81
2024/01/27 01:39:15;;;;;;;15.95;3.92;;;;;;;;;;5010075;28;20111;-81
2024/01/27 01:41:41;;;;;;;13.98;4.10;;;;;;;;;;5006284;28;20045;-81
2024/01/27 01:44:08;;;;;;;18.55;4.18;;;;;;;;;;5008106;28;20084;-81
2024/01/27 01:46:34;;;;;;;19.90;3.97;;;;;;;;;;5008284;28;20073;-81
2024/01/27 01:49:00;;;;;;;10.82;3.80;;;;;;;;;;5034589;28;20102;-81
2024/01/27 01:51:27;;;;;;;17.67;3.65;;;;;;;;;;5029680;28;20049;-81
2024/01/27 01:53:55;;;;;;;17.65;4.43;;;;;;;;;;5047810;28;20407;-81
2024/01/27 01:56:21;;;;;;;17.23;4.30;;;;;;;;;;5024982;28;20276;-81
2024/01/27 01:58:47;;;;;;;17.23;3.80;;;;;;;;;;5010057;28;20081;-81
2024/01/27 02:01:13;;;;;;;13.15;3.90;;;;;;;;;;5010256;28;20080;-81
2024/01/27 02:03:39;;;;;;;14.63;3.70;;;;;;;;;;5009319;28;20073;-81
2024/01/27 02:06:06;;;;;;;16.33;3.58;;;;;;;;;;5009710;28;20097;-80
2024/01/27 02:08:32;;;;;;;13.35;3.97;;;;;;;;;;5027366;28;20052;-81
2024/01/27 02:11:01;;;;;;;12.18;3.70;;;;;;;;;;5025861;28;20091;-81
2024/01/27 02:13:27;;;;;;;14.48;4.22;;;;;;;;;;5006069;28;20045;-81
2024/01/27 02:15:53;;;;;;;17.08;4.40;;;;;;;;;;5033229;28;20053;-81
2024/01/27 02:18:20;;;;;;;17.35;3.88;;;;;;;;;;4994020;28;20041;-81
2024/01/27 02:20:46;;;;;;;14.45;3.33;;;;;;;;;;5012205;28;20049;-81
2024/01/27 02:23:12;;;;;;;17.30;4.05;;;;;;;;;;5031807;28;20045;-81
2024/01/27 02:25:38;;;;;;;13.57;3.67;;;;;;;;;;5013461;28;20424;-81
2024/01/27 02:28:05;;;;;;;14.65;3.85;;;;;;;;;;5031627;28;20142;-81
2024/01/27 02:30:31;;;;;;;11.88;4.05;;;;;;;;;;5035260;28;20507;-81
2024/01/27 02:32:58;;;;;;;17.52;4.15;;;;;;;;;;5045977;28;20037;-81
2024/01/27 02:35:24;;;;;;;13.80;3.65;;;;;;;;;;5032990;28;20098;-81
2024/01/27 02:37:50;;;;;;;19.45;4.88;;;;;;;;;;5033180;28;20135;-81
2024/01/27 02:40:16;;;;;;;17.80;4.05;;;;;;;;;;5032715;28;20045;-81
2024/01/27 02:42:43;;;;;;;12.77;3.97;;;;;;;;;;5018811;28;20114;-81
2024/01/27 02:45:09;;;;;;;16.85;3.45;;;;;;;;;;5029744;28;20049;-81
2024/01/27 02:47:36;;;;;;;14.85;3.78;;;;;;;;;;5026198;28;20126;-81
2024/01/27 02:50:02;;;;;;;16.95;4.15;;;;;;;;;;5050441;28;20175;-82
2024/01/27 02:52:28;;;;;;;15.02;3.97;;;;;;;;;;5013168;28;20067;-81
2024/01/27 02:54:54;;;;;;;15.88;4.78;;;;;;;;;;4995856;28;20990;-81
2024/01/27 02:57:20;;;;;;;17.33;4.50;;;;;;;;;;5030878;28;20041;-81
2024/01/27 02:59:46;;;;;;;13.43;3.58;;;;;;;;;;5030922;28;20052;-81
2024/01/27 03:02:12;;;;;;;15.18;3.50;;;;;;;;;;5030782;28;20049;-81
2024/01/27 03:04:38;;;;;;;12.95;3.88;;;;;;;;;;5030500;28;20045;-81
2024/01/27 03:07:05;;;;;;;18.15;3.97;;;;;;;;;;5029878;28;20049;-81
2024/01/27 03:09:31;;;;;;;17.88;4.15;;;;;;;;;;5030100;28;20192;-81
2024/01/27 03:11:57;;;;;;;19.55;4.07;;;;;;;;;;5012410;28;20045;-81
2024/01/27 03:14:24;;;;;;;16.65;4.25;;;;;;;;;;5012292;28;20109;-81
2024/01/27 03:16:50;;;;;;;16.00;4.40;;;;;;;;;;5012569;28;20052;-81
2024/01/27 03:19:16;;;;;;;22.27;4.18;;;;;;;;;;5045576;28;20087;-81
2024/01/27 03:21:42;;;;;;;13.13;4.65;;;;;;;;;;5032690;28;20072;-81
2024/01/27 03:24:08;;;;;;;13.93;3.90;;;;;;;;;;5032310;28;20084;-81
2024/01/27 03:26:34;;;;;;;15.18;4.47;;;;;;;;;;5013407;28;20054;-81
2024/01/27 03:29:00;;;;;;;19.15;4.65;;;;;;;;;;5030241;28;20072;-81
2024/01/27 03:31:33;;;;;;;20.10;4.13;;;;;;;;;;5033794;28;20132;-81
2024/01/27 03:33:59;;;;;;;14.25;3.45;;;;;;;;;;5032198;28;20052;-82
2024/01/27 03:36:25;;;;;;;21.20;4.30;;;;;;;;;;5032400;28;20036;-81
2024/01/27 03:38:51;;;;;;;20.92;4.85;;;;;;;;;;5049805;28;20052;-81
2024/01/27 03:41:17;;;;;;;16.20;5.15;;;;;;;;;;5030827;28;20041;-81
2024/01/27 03:43:43;;;;;;;18.77;4.38;;;;;;;;;;5012424;28;20045;-81
2024/01/27 03:46:09;;;;;;;20.17;4.97;;;;;;;;;;5012192;28;20041;-81
2024/01/27 03:48:35;;;;;;;18.90;4.43;;;;;;;;;;5030262;28;20053;-81
2024/01/27 03:51:01;;;;;;;13.60;3.90;;;;;;;;;;5028808;28;20045;-81
2024/01/27 03:53:28;;;;;;;20.90;4.45;;;;;;;;;;5029966;28;20115;-81
2024/01/27 03:55:54;;;;;;;24.73;4.93;;;;;;;;;;5028283;28;20175;-81
2024/01/27 03:58:20;;;;;;;19.30;4.10;;;;;;;;;;5030061;28;20570;-81
2024/01/27 04:00:46;;;;;;;17.75;4.47;;;;;;;;;;5010177;28;20507;-81
2024/01/27 04:03:12;;;;;;;12.55;3.78;;;;;;;;;;5029293;28;20087;-81
2024/01/27 04:05:38;;;;;;;22.80;4.55;;;;;;;;;;5029401;28;20151;-81
2024/01/27 04:08:07;;;;;;;13.80;3.88;;;;;;;;;;4995637;28;20538;-81
2024/01/27 04:10:34;;;;;;;13.25;4.22;;;;;;;;;;5028682;28;20472;-81
2024/01/27 04:13:00;;;;;;;21.65;4.95;;;;;;;;;;4995240;28;20119;-82
2024/01/27 04:15:26;;;;;;;13.13;3.78;;;;;;;;;;5029127;28;20454;-81
2024/01/27 04:17:52;;;;;;;15.55;4.45;;;;;;;;;;5029136;28;20084;-81
2024/01/27 04:20:18;;;;;;;10.85;3.85;;;;;;;;;;5029234;28;20095;-81
2024/01/27 04:22:44;;;;;;;16.52;3.80;;;;;;;;;;5028817;28;20045;-81
2024/01/27 04:25:10;;;;;;;19.13;4.95;;;;;;;;;;5011200;28;20414;-81
2024/01/27 04:27:39;;;;;;;17.00;4.00;;;;;;;;;;5011519;28;20145;-81
2024/01/27 04:30:07;;;;;;;14.07;4.38;;;;;;;;;;5011517;28;20048;-81
2024/01/27 04:32:33;;;;;;;16.77;4.40;;;;;;;;;;5022334;28;20078;-81
2024/01/27 04:34:59;;;;;;;13.75;4.30;;;;;;;;;;5009761;28;20049;-81
2024/01/27 04:37:25;;;;;;;15.48;4.00;;;;;;;;;;5028832;28;20396;-82
2024/01/27 04:39:51;;;;;;;20.10;4.18;;;;;;;;;;5011000;28;20064;-81
2024/01/27 04:42:17;;;;;;;18.90;5.30;;;;;;;;;;5028805;28;20491;-81
2024/01/27 04:44:43;;;;;;;22.45;4.63;;;;;;;;;;5028779;28;20049;-81
2024/01/27 04:47:09;;;;;;;15.68;3.90;;;;;;;;;;5028361;28;20052;-81
2024/01/27 04:49:35;;;;;;;15.57;4.25;;;;;;;;;;5028859;28;20048;-81
2024/01/27 04:52:01;;;;;;;14.07;4.28;;;;;;;;;;5027850;28;20146;-82
2024/01/27 04:54:27;;;;;;;17.13;4.03;;;;;;;;;;5010657;28;20123;-81
2024/01/27 04:56:53;;;;;;;15.40;4.07;;;;;;;;;;5010506;28;20100;-81
2024/01/27 04:59:19;;;;;;;23.58;4.18;;;;;;;;;;5028251;28;20041;-82
2024/01/27 05:01:46;;;;;;;16.10;4.38;;;;;;;;;;5028644;28;20482;-82
2024/01/27 05:04:12;;;;;;;13.95;3.92;;;;;;;;;;5028116;28;20143;-81
2024/01/27 05:06:39;;;;;;;12.60;3.53;;;;;;;;;;5026856;28;20048;-82
2024/01/27 05:09:08;;;;;;;18.90;4.10;;;;;;;;;;5028497;28;20045;-82
2024/01/27 05:11:34;;;;;;;13.45;3.58;;;;;;;;;;5010378;28;20045;-81
2024/01/27 05:14:00;;;;;;;16.90;4.35;;;;;;;;;;5020614;28;20529;-81
2024/01/27 05:16:27;;;;;;;17.50;4.07;;;;;;;;;;5048052;28;20041;-82
2024/01/27 05:18:53;;;;;;;18.58;4.72;;;;;;;;;;5030345;28;20106;-81
2024/01/27 05:21:19;;;;;;;20.58;4.95;;;;;;;;;;5040320;28;20041;-81
2024/01/27 05:23:45;;;;;;;16.00;4.40;;;;;;;;;;5048206;28;20612;-81
2024/01/27 05:26:11;;;;;;;14.93;4.10;;;;;;;;;;5047808;28;20063;-82
2024/01/27 05:28:39;;;;;;;18.58;4.25;;;;;;;;;;5031021;28;20416;-81
2024/01/27 05:31:08;;;;;;;16.88;4.13;;;;;;;;;;5028379;28;20190;-81
2024/01/27 05:33:34;;;;;;;16.75;4.20;;;;;;;;;;5010737;28;20053;-81
2024/01/27 05:36:00;;;;;;;14.35;4.18;;;;;;;;;;5027114;28;20381;-81
2024/01/27 05:38:28;;;;;;;17.10;4.63;;;;;;;;;;5028159;28;20056;-81
2024/01/27 05:40:54;;;;;;;17.05;4.80;;;;;;;;;;5027014;28;20056;-81
2024/01/27 05:43:20;;;;;;;16.92;4.22;;;;;;;;;;5009366;28;20049;-81
2024/01/27 05:45:46;;;;;;;19.10;4.68;;;;;;;;;;5010405;28;20490;-81
2024/01/27 05:48:12;;;;;;;14.23;4.80;;;;;;;;;;5027144;28;20052;-81
2024/01/27 05:50:40;;;;;;;21.10;4.85;;;;;;;;;;5027478;28;20060;-81
2024/01/27 05:53:06;;;;;;;15.98;5.38;;;;;;;;;;5027978;28;20053;-81
2024/01/27 05:55:33;;;;;;;27.35;6.15;;;;;;;;;;5032234;28;20407;-81
2024/01/27 05:57:59;;;;;;;16.58;4.40;;;;;;;;;;5033627;28;20486;-81
2024/01/27 06:00:26;;;;;;;22.33;5.13;;;;;;;;;;5028445;28;20495;-81
2024/01/27 06:02:52;;;;;;;24.40;5.50;;;;;;;;;;5034443;28;20045;-82
2024/01/27 06:05:18;;;;;;;14.40;4.63;;;;;;;;;;5033507;28;20128;-82
2024/01/27 06:07:46;;;;;;;18.42;5.35;;;;;;;;;;5034359;28;20072;-81
2024/01/27 06:10:12;;;;;;;20.50;5.90;;;;;;;;;;5015968;28;20064;-82
2024/01/27 06:12:39;;;;;;;23.58;6.35;;;;;;;;;;5033309;28;20044;-82
2024/01/27 06:15:06;;;;;;;20.02;5.82;;;;;;;;;;5040482;28;20122;-82
2024/01/27 06:17:32;;;;;;;20.67;6.22;;;;;;;;;;5032994;28;20052;-82
2024/01/27 06:19:58;;;;;;;20.55;6.03;;;;;;;;;;5015471;28;20045;-81
2024/01/27 06:22:24;;;;;;;16.77;5.38;;;;;;;;;;5016485;28;20042;-82
2024/01/27 06:24:50;;;;;;;17.75;6.63;;;;;;;;;;5034017;28;20506;-82
2024/01/27 06:27:16;;;;;;;17.65;5.90;;;;;;;;;;5032572;28;20499;-82
2024/01/27 06:29:43;;;;;;;22.67;7.65;;;;;;;;;;5016032;28;20616;-82
2024/01/27 06:32:09;;;;;;;19.38;6.78;;;;;;;;;;5016400;28;20052;-82
2024/01/27 06:34:35;;;;;;;18.05;6.70;;;;;;;;;;5016171;28;20103;-82
2024/01/27 06:37:01;;;;;;;15.40;6.53;;;;;;;;;;5033643;28;20042;-83
2024/01/27 06:39:29;;;;;;;17.15;6.88;;;;;;;;;;5033992;28;20046;-82
2024/01/27 06:41:55;;;;;;;21.80;7.28;;;;;;;;;;4999304;28;20049;-81
2024/01/27 06:44:21;;;;;;;21.77;8.43;;;;;;;;;;5030623;28;20490;-82
2024/01/27 06:46:49;;;;;;;20.00;7.50;;;;;;;;;;5038400;28;20045;-82
2024/01/27 06:49:16;;;;;;;15.73;7.22;;;;;;;;;;4999194;28;20415;-83
2024/01/27 06:51:42;;;;;;;17.73;7.07;;;;;;;;;;5034034;28;20053;-81
2024/01/27 06:54:08;;;;;;;21.58;7.22;;;;;;;;;;5036441;28;20041;-81
2024/01/27 06:56:35;;;;;;;20.08;7.40;;;;;;;;;;5018980;28;20705;-81
2024/01/27 06:59:01;;;;;;;18.30;7.53;;;;;;;;;;5042694;28;20053;-81
2024/01/27 07:01:27;;;;;;;22.50;8.50;;;;;;;;;;5030186;28;20453;-81
2024/01/27 07:03:53;;;;;;;21.95;7.68;;;;;;;;;;4998358;28;20057;-82
2024/01/27 07:06:19;;;;;;;29.00;8.23;;;;;;;;;;5014309;28;20053;-81
2024/01/27 07:08:45;;;;;;;18.95;8.52;;;;;;;;;;5034750;28;20059;-82
2024/01/27 07:11:12;;;;;;;20.23;7.28;;;;;;;;;;5015546;28;20520;-82
2024/01/27 07:13:38;;;;;;;30.42;9.55;;;;;;;;;;5050620;28;20440;-82
2024/01/27 07:16:04;;;;;;;23.95;8.88;;;;;;;;;;5031851;28;20048;-82
2024/01/27 07:18:30;;;;;;;24.70;8.35;;;;;;;;;;5026313;28;20034;-82
2024/01/27 07:20:59;;;;;;;31.38;9.00;;;;;;;;;;5030545;28;20049;-81
2024/01/27 07:23:25;;;;;;;27.23;13.40;;;;;;;;;;5032594;28;20057;-81
2024/01/27 07:25:51;;;;;;;35.72;18.77;;;;;;;;;;5031236;28;20056;-81
2024/01/27 07:28:18;;;;;;;46.13;24.67;;;;;;;;;;4994148;28;20049;-82
2024/01/27 07:30:44;;;;;;;57.28;30.80;;;;;;;;;;4998653;28;20045;-82
2024/01/27 07:33:10;;;;;;;43.22;22.60;;;;;;;;;;5033370;28;20063;-80
2024/01/27 07:35:36;;;;;;;21.88;11.65;;;;;;;;;;4994315;28;20081;-81
2024/01/27 07:38:02;;;;;;;18.90;8.90;;;;;;;;;;5035587;28;20423;-82
2024/01/27 07:40:29;;;;;;;21.38;9.65;;;;;;;;;;5011876;28;20053;-82
2024/01/27 07:42:55;;;;;;;22.85;8.30;;;;;;;;;;5012750;28;20050;-80
2024/01/27 07:45:21;;;;;;;22.55;9.82;;;;;;;;;;5010523;28;20060;-79
2024/01/27 07:47:47;;;;;;;18.67;8.43;;;;;;;;;;5028101;28;20049;-80
2024/01/27 07:50:13;;;;;;;17.98;7.75;;;;;;;;;;5027524;28;20056;-80
2024/01/27 07:52:39;;;;;;;21.13;8.93;;;;;;;;;;5028260;28;20080;-81
2024/01/27 07:55:05;;;;;;;23.30;12.52;;;;;;;;;;5024027;28;20046;-81
2024/01/27 07:57:32;;;;;;;24.58;10.38;;;;;;;;;;5027945;28;20483;-80
2024/01/27 07:59:58;;;;;;;21.25;9.15;;;;;;;;;;5007247;28;20080;-81
2024/01/27 08:02:26;;;;;;;30.05;8.70;;;;;;;;;;5016329;28;20084;-80
2024/01/27 08:04:52;;;;;;;19.83;7.90;;;;;;;;;;5009568;28;20072;-80
2024/01/27 08:07:18;;;;;;;17.40;7.60;;;;;;;;;;5028478;28;20056;-80
2024/01/27 08:09:44;;;;;;;27.98;8.32;;;;;;;;;;5028197;28;20411;-78
2024/01/27 08:12:10;;;;;;;24.98;8.80;;;;;;;;;;5028135;28;20049;-78
2024/01/27 08:14:36;;;;;;;20.55;8.80;;;;;;;;;;5028179;28;20045;-78
2024/01/27 08:17:05;;;;;;;26.38;8.80;;;;;;;;;;5025833;28;20045;-78
2024/01/27 08:19:31;;;;;;;22.33;8.38;;;;;;;;;;5028201;28;20049;-79
2024/01/27 08:21:58;;;;;;;22.20;8.82;;;;;;;;;;5027455;28;20082;-79
2024/01/27 08:24:24;;;;;;;24.67;9.10;;;;;;;;;;5025097;28;20045;-80
2024/01/27 08:26:50;;;;;;;18.88;8.65;;;;;;;;;;5027339;28;20168;-80
2024/01/27 08:29:16;;;;;;;20.15;8.80;;;;;;;;;;5027262;28;20048;-80
2024/01/27 08:31:43;;;;;;;28.30;9.43;;;;;;;;;;5027556;28;20142;-80
2024/01/27 08:34:12;;;;;;;24.73;8.73;;;;;;;;;;5027585;28;20045;-80
2024/01/27 08:36:38;;;;;;;22.98;9.40;;;;;;;;;;5028047;28;20045;-80
2024/01/27 08:39:07;;;;;;;25.23;10.25;;;;;;;;;;5011133;28;20374;-80
2024/01/27 08:41:33;;;;;;;21.10;9.32;;;;;;;;;;5028688;28;20430;-80
2024/01/27 08:43:59;;;;;;;21.35;10.43;;;;;;;;;;5028424;28;20038;-80
2024/01/27 08:46:25;;;;;;;24.15;11.57;;;;;;;;;;5028599;28;20049;-80
2024/01/27 08:48:51;;;;;;;22.92;11.75;;;;;;;;;;5011184;28;20067;-80
2024/01/27 08:51:17;;;;;;;23.52;11.13;;;;;;;;;;5011188;28;20049;-80
2024/01/27 08:53:50;;;;;;;27.00;12.05;;;;;;;;;;5028372;28;20064;-80
2024/01/27 08:56:17;;;;;;;;;;;;;;;;;;5011088;28;20403;-80
2024/01/27 08:58:43;;;;;;;25.98;11.30;;;;;;;;;;5028560;28;19921;-80
2024/01/27 09:01:12;;;;;;;26.85;11.60;;;;;;;;;;5031944;28;20057;-80
2024/01/27 09:03:39;;;;;;;25.42;12.05;;;;;;;;;;5028298;28;20065;-79
2024/01/27 09:06:05;;;;;;;22.98;12.25;;;;;;;;;;5010668;28;20057;-80
2024/01/27 09:08:31;;;;;;;30.60;11.77;;;;;;;;;;5010471;28;20435;-80
2024/01/27 09:10:57;;;;;;;26.95;12.70;;;;;;;;;;5027988;28;20045;-80
2024/01/27 09:13:23;;;;;;;27.50;12.98;;;;;;;;;;5028761;28;20470;-80
2024/01/27 09:15:49;;;;;;;29.67;13.90;;;;;;;;;;5010032;28;20708;-80
2024/01/27 09:18:16;;;;;;;27.00;13.00;;;;;;;;;;5028869;28;20045;-79
2024/01/27 09:20:42;;;;;;;28.80;12.82;;;;;;;;;;5029327;28;20056;-79
2024/01/27 09:23:08;;;;;;;28.40;13.27;;;;;;;;;;5028152;28;20081;-80
2024/01/27 09:25:34;;;;;;;26.17;12.55;;;;;;;;;;5028134;28;20084;-79
2024/01/27 09:28:01;;;;;;;29.00;12.80;;;;;;;;;;5027852;28;20050;-80
2024/01/27 09:30:27;;;;;;;25.55;12.32;;;;;;;;;;5009318;28;20103;-80
2024/01/27 09:32:53;;;;;;;28.25;11.50;;;;;;;;;;5013841;28;20067;-80
2024/01/27 09:35:20;;;;;;;31.67;13.13;;;;;;;;;;5020862;28;20649;-80
2024/01/27 09:37:46;;;;;;;32.90;11.90;;;;;;;;;;5048233;28;20084;-80
2024/01/27 09:40:12;;;;;;;25.27;11.20;;;;;;;;;;5028432;28;20092;-80
2024/01/27 09:42:42;;;;;;;23.10;11.35;;;;;;;;;;5029484;28;20053;-80
2024/01/27 09:45:10;;;;;;;22.70;10.20;;;;;;;;;;5029765;28;20053;-80
2024/01/27 09:47:36;;;;;;;23.73;11.45;;;;;;;;;;5047518;28;20099;-80
2024/01/27 09:50:02;;;;;;;20.25;10.48;;;;;;;;;;5047554;28;20091;-80
2024/01/27 09:52:28;;;;;;;24.10;11.13;;;;;;;;;;5029565;28;20650;-80
2024/01/27 09:54:54;;;;;;;28.90;15.80;;;;;;;;;;5038730;28;20045;-80
2024/01/27 09:57:20;;;;;;;22.40;11.60;;;;;;;;;;5027482;28;20117;-80
2024/01/27 09:59:47;;;;;;;19.40;11.40;;;;;;;;;;5027834;28;20050;-79
2024/01/27 10:02:14;;;;;;;23.08;9.73;;;;;;;;;;5010246;28;20501;-80
2024/01/27 10:04:41;;;;;;;24.83;10.23;;;;;;;;;;4976902;28;20086;-79
2024/01/27 10:07:07;;;;;;;23.10;10.77;;;;;;;;;;4988432;28;20157;-79
2024/01/27 10:09:33;;;;;;;26.63;10.70;;;;;;;;;;4990214;28;20117;-79
2024/01/27 10:12:01;;;;;;;15.40;9.65;;;;;;;;;;4989573;28;20420;-79
2024/01/27 10:14:27;;;;;;;22.58;10.95;;;;;;;;;;4989810;28;20058;-79
2024/01/27 10:16:53;;;;;;;18.60;9.98;;;;;;;;;;4988450;28;20081;-79
2024/01/27 10:19:20;;;;;;;24.90;9.38;;;;;;;;;;4987399;28;20668;-83
2024/01/27 10:21:46;;;;;;;19.27;9.70;;;;;;;;;;4970756;28;20108;-80
2024/01/27 10:24:12;;;;;;;20.75;9.23;;;;;;;;;;4988249;28;20552;-80
2024/01/27 10:26:39;;;;;;;19.20;8.82;;;;;;;;;;4987565;28;20575;-80
2024/01/27 10:29:05;;;;;;;19.67;8.45;;;;;;;;;;5003165;28;20050;-80
2024/01/27 10:31:32;;;;;;;22.10;8.32;;;;;;;;;;5006727;28;20049;-80
2024/01/27 10:33:59;;;;;;;16.77;8.55;;;;;;;;;;5007489;28;20046;-79
2024/01/27 10:36:28;;;;;;;17.50;7.82;;;;;;;;;;5006463;28;20053;-79
2024/01/27 10:38:54;;;;;;;18.45;8.10;;;;;;;;;;5006297;28;20041;-79
2024/01/27 10:41:24;;;;;;;22.27;8.15;;;;;;;;;;5008957;28;20053;-80
2024/01/27 10:43:53;;;;;;;17.75;7.57;;;;;;;;;;5011680;28;20057;-80
2024/01/27 10:46:21;;;;;;;15.63;7.28;;;;;;;;;;4995458;28;20138;-80
2024/01/27 10:48:50;;;;;;;21.17;7.70;;;;;;;;;;5010825;28;20060;-78
2024/01/27 10:51:17;;;;;;;12.98;6.97;;;;;;;;;;5010267;28;20053;-79
2024/01/27 10:53:46;;;;;;;12.70;6.90;;;;;;;;;;4991268;28;20042;-80
2024/01/27 10:56:13;;;;;;;20.20;7.63;;;;;;;;;;4989824;28;20054;-78
2024/01/27 10:58:41;;;;;;;17.17;7.22;;;;;;;;;;4986304;28;20049;-79
2024/01/27 11:01:11;;;;;;;15.15;7.18;;;;;;;;;;4989849;28;20587;-79
2024/01/27 11:03:41;;;;;;;15.50;8.25;;;;;;;;;;5014189;28;20103;-81
2024/01/27 11:06:08;;;;;;;18.27;7.50;;;;;;;;;;5050410;28;20127;-79
2024/01/27 11:08:34;;;;;;;18.63;8.18;;;;;;;;;;5050779;28;20053;-79
2024/01/27 11:11:01;;;;;;;17.50;7.10;;;;;;;;;;5032129;28;20048;-79
2024/01/27 11:13:28;;;;;;;17.33;6.30;;;;;;;;;;5032546;28;20475;-79
2024/01/27 11:15:55;;;;;;;14.02;6.43;;;;;;;;;;5019374;28;20054;-79
2024/01/27 11:18:21;;;;;;;17.88;6.28;;;;;;;;;;5013365;28;20132;-78
2024/01/27 11:20:47;;;;;;;14.07;6.88;;;;;;;;;;5032182;28;20042;-79
2024/01/27 11:23:16;;;;;;;15.05;5.82;;;;;;;;;;5011735;28;20143;-79
2024/01/27 11:25:42;;;;;;;16.63;6.68;;;;;;;;;;5012857;28;20055;-79
2024/01/27 11:28:15;;;;;;;13.27;6.10;;;;;;;;;;5030442;28;20056;-80
2024/01/27 11:30:48;;;;;;;13.00;5.57;;;;;;;;;;5030262;28;20041;-78
2024/01/27 11:33:14;;;;;;;;;;;;;;;;;;5030918;28;20411;-79
2024/01/27 11:35:40;;;;;;;17.70;5.55;;;;;;;;;;5044258;28;19921;-79
2024/01/27 11:38:06;;;;;;;20.25;6.18;;;;;;;;;;5012416;28;20045;-79
2024/01/27 11:40:33;;;;;;;17.77;5.78;;;;;;;;;;5010291;28;20071;-78
2024/01/27 11:43:02;;;;;;;16.10;5.25;;;;;;;;;;5025861;28;20507;-78
2024/01/27 11:45:29;;;;;;;13.77;5.18;;;;;;;;;;5009988;28;20065;-78
2024/01/27 11:47:56;;;;;;;13.05;5.28;;;;;;;;;;5029735;28;20511;-78
2024/01/27 11:50:22;;;;;;;9.95;4.65;;;;;;;;;;5008423;28;20088;-78
2024/01/27 11:52:49;;;;;;;20.80;6.07;;;;;;;;;;5024502;28;20050;-76
2024/01/27 11:55:16;;;;;;;14.70;5.43;;;;;;;;;;5029505;28;20132;-77
2024/01/27 11:57:42;;;;;;;16.75;5.70;;;;;;;;;;5029075;28;20049;-76
2024/01/27 12:00:11;;;;;;;16.88;5.55;;;;;;;;;;5017976;28;20048;-76
2024/01/27 12:02:38;;;;;;;14.43;5.03;;;;;;;;;;5012554;28;20053;-77
2024/01/27 12:05:05;;;;;;;18.73;6.10;;;;;;;;;;4974560;28;20543;-77
2024/01/27 12:07:31;;;;;;;14.25;5.30;;;;;;;;;;4983599;28;20058;-77
2024/01/27 12:09:57;;;;;;;18.20;5.50;;;;;;;;;;4988328;28;20046;-77
2024/01/27 12:12:23;;;;;;;14.80;5.70;;;;;;;;;;4991381;28;20077;-76
2024/01/27 12:14:51;;;;;;;14.68;5.75;;;;;;;;;;4997990;28;20077;-78
2024/01/27 12:17:18;;;;;;;20.25;6.25;;;;;;;;;;5009516;28;20038;-78
2024/01/27 12:19:47;;;;;;;13.82;5.20;;;;;;;;;;5009740;28;20408;-79
2024/01/27 12:22:27;;;;;;;16.38;5.53;;;;;;;;;;5002138;28;20081;-79
2024/01/27 12:24:56;;;;;;;16.63;5.60;;;;;;;;;;4989576;28;20092;-79
2024/01/27 12:27:23;;;;;;;14.65;4.88;;;;;;;;;;4989898;28;20425;-77
2024/01/27 12:29:49;;;;;;;14.85;5.57;;;;;;;;;;4997294;28;20042;-79
2024/01/27 12:32:16;;;;;;;12.30;5.18;;;;;;;;;;5008542;28;20431;-79
2024/01/27 12:34:42;;;;;;;13.88;5.20;;;;;;;;;;5009101;28;20183;-78
2024/01/27 12:37:13;;;;;;;23.63;6.57;;;;;;;;;;5000885;28;20821;-79
2024/01/27 12:39:41;;;;;;;15.75;4.95;;;;;;;;;;4989363;28;20085;-79
2024/01/27 12:42:07;;;;;;;16.58;6.07;;;;;;;;;;4999375;28;21068;-79
2024/01/27 12:44:33;;;;;;;14.70;5.40;;;;;;;;;;5008922;28;20131;-79
2024/01/27 12:47:00;;;;;;;13.88;5.95;;;;;;;;;;5008980;28;20042;-79
2024/01/27 12:49:26;;;;;;;13.57;5.07;;;;;;;;;;5008316;28;20054;-80
2024/01/27 12:51:52;;;;;;;19.17;5.15;;;;;;;;;;5001396;28;20046;-79
2024/01/27 12:54:19;;;;;;;14.93;5.30;;;;;;;;;;4971428;28;20053;-78
2024/01/27 12:56:45;;;;;;;17.35;5.90;;;;;;;;;;4987824;28;20053;-78
2024/01/27 12:59:12;;;;;;;12.60;5.05;;;;;;;;;;4992645;28;20065;-78
2024/01/27 13:01:38;;;;;;;18.05;6.30;;;;;;;;;;5007525;28;20053;-78
2024/01/27 13:04:04;;;;;;;14.05;5.38;;;;;;;;;;5007367;28;20057;-79
2024/01/27 13:06:30;;;;;;;15.90;5.85;;;;;;;;;;5008849;28;20110;-78
2024/01/27 13:08:56;;;;;;;13.00;5.53;;;;;;;;;;4996600;28;20054;-79
2024/01/27 13:11:24;;;;;;;12.23;4.97;;;;;;;;;;4989709;28;20046;-79
2024/01/27 13:13:50;;;;;;;13.20;5.07;;;;;;;;;;5001724;28;20097;-79
2024/01/27 13:16:16;;;;;;;14.18;5.60;;;;;;;;;;4987911;28;20133;-78
2024/01/27 13:18:42;;;;;;;16.48;5.25;;;;;;;;;;4989125;28;20046;-78
2024/01/27 13:21:08;;;;;;;15.65;4.82;;;;;;;;;;4988978;28;20058;-81
2024/01/27 13:23:34;;;;;;;15.48;5.35;;;;;;;;;;4988202;28;20050;-81
2024/01/27 13:26:00;;;;;;;15.77;5.10;;;;;;;;;;4986519;28;20042;-79
2024/01/27 13:28:26;;;;;;;14.88;5.55;;;;;;;;;;4995572;28;20065;-80
2024/01/27 13:30:52;;;;;;;17.88;5.25;;;;;;;;;;4988648;28;20491;-79
2024/01/27 13:33:19;;;;;;;12.85;4.82;;;;;;;;;;4990547;28;20065;-78
2024/01/27 13:35:46;;;;;;;17.13;4.85;;;;;;;;;;4991103;28;20050;-79
2024/01/27 13:38:15;;;;;;;11.93;4.25;;;;;;;;;;4990417;28;20133;-78
2024/01/27 13:40:42;;;;;;;14.15;4.80;;;;;;;;;;4988075;28;20118;-79
2024/01/27 13:43:08;;;;;;;13.20;4.70;;;;;;;;;;4987708;28;20125;-79
2024/01/27 13:45:34;;;;;;;14.55;4.85;;;;;;;;;;4989049;28;20046;-79
2024/01/27 13:48:02;;;;;;;15.90;4.95;;;;;;;;;;4997036;28;20188;-79
2024/01/27 13:50:31;;;;;;;15.85;5.15;;;;;;;;;;5008297;28;20527;-79
2024/01/27 13:52:57;;;;;;;13.40;4.90;;;;;;;;;;5006894;28;20046;-79
2024/01/27 13:55:23;;;;;;;11.02;4.53;;;;;;;;;;5007713;28;20195;-79
2024/01/27 13:57:49;;;;;;;15.07;4.90;;;;;;;;;;5007845;28;20555;-79
2024/01/27 14:00:15;;;;;;;16.17;5.10;;;;;;;;;;5008032;28;20495;-81
2024/01/27 14:02:43;;;;;;;13.07;4.95;;;;;;;;;;4997125;28;20137;-80
2024/01/27 14:05:10;;;;;;;13.02;4.80;;;;;;;;;;5025849;28;20466;-80
2024/01/27 14:07:36;;;;;;;12.00;4.57;;;;;;;;;;5029989;28;20152;-80
2024/01/27 14:10:02;;;;;;;12.43;4.88;;;;;;;;;;5046999;28;20048;-80
2024/01/27 14:12:29;;;;;;;12.43;4.93;;;;;;;;;;5047297;28;20049;-80
2024/01/27 14:15:02;;;;;;;13.25;4.30;;;;;;;;;;5029974;28;20045;-81
2024/01/27 14:17:28;;;;;;;16.38;5.03;;;;;;;;;;5010526;28;20124;-80
2024/01/27 14:19:54;;;;;;;12.23;5.30;;;;;;;;;;5016392;28;20053;-79
2024/01/27 14:22:20;;;;;;;11.48;4.95;;;;;;;;;;5045552;28;20094;-78
2024/01/27 14:24:46;;;;;;;12.98;4.90;;;;;;;;;;5032769;28;20033;-78